sensor_id;sensor_type;location;lat;lon;timestamp;temperature;humidity
39277;DHT22;63149;48.086;-1.606;2022-09-09T05:00:42;15.40;99.90
39277;DHT22;63149;48.086;-1.606;2022-09-09T05:03:09;15.40;99.90
39277;DHT22;63149;48.086;-1.606;2022-09-09T05:05:35;15.40;99.90
39277;DHT22;63149;48.086;-1.606;2022-09-09T05:08:03;15.40;99.90
39277;DHT22;63149;48.086;-1.606;2022-09-09T05:10:30;15.50;99.90
39277;DHT22;63149;48.086;-1.606;2022-09-09T05:12:57;15.40;99.90
39277;DHT22;63149;48.086;-1.606;2022-09-09T05:15:24;15.40;99.90
39277;DHT22;63149;48.086;-1.606;2022-09-09T05:17:52;15.30;99.90
39277;DHT22;63149;48.086;-1.606;2022-09-09T05:20:23;15.30;99.90
39277;DHT22;63149;48.086;-1.606;2022-09-09T05:22:52;15.30;99.90
39277;DHT22;63149;48.086;-1.606;2022-09-09T05:25:19;15.30;99.90
39277;DHT22;63149;48.086;-1.606;2022-09-09T05:27:47;15.30;99.90
39277;DHT22;63149;48.086;-1.606;2022-09-09T05:30:15;15.30;99.90
39277;DHT22;63149;48.086;-1.606;2022-09-09T05:32:42;15.30;99.90
39277;DHT22;63149;48.086;-1.606;2022-09-09T05:35:10;15.30;99.90
39277;DHT22;63149;48.086;-1.606;2022-09-09T05:37:38;15.20;99.90
39277;DHT22;63149;48.086;-1.606;2022-09-09T05:40:06;15.20;99.90
39277;DHT22;63149;48.086;-1.606;2022-09-09T05:42:33;15.20;99.90
39277;DHT22;63149;48.086;-1.606;2022-09-09T05:45:00;15.10;99.90
39277;DHT22;63149;48.086;-1.606;2022-09-09T05:47:27;15.10;99.90
39277;DHT22;63149;48.086;-1.606;2022-09-09T05:49:54;15.10;99.90
39277;DHT22;63149;48.086;-1.606;2022-09-09T05:52:23;15.10;99.90
39277;DHT22;63149;48.086;-1.606;2022-09-09T05:54:51;15.10;99.90
39277;DHT22;63149;48.086;-1.606;2022-09-09T05:57:20;15.10;99.90
39277;DHT22;63149;48.086;-1.606;2022-09-09T05:59:47;15.10;99.90
39277;DHT22;63149;48.086;-1.606;2022-09-09T06:02:15;15.10;99.90
39277;DHT22;63149;48.086;-1.606;2022-09-09T06:04:42;15.10;99.90
39277;DHT22;63149;48.086;-1.606;2022-09-09T06:07:09;15.10;99.90
39277;DHT22;63149;48.086;-1.606;2022-09-09T06:09:37;15.20;99.90
39277;DHT22;63149;48.086;-1.606;2022-09-09T06:12:05;15.20;99.90
39277;DHT22;63149;48.086;-1.606;2022-09-09T06:14:32;15.20;99.90
39277;DHT22;63149;48.086;-1.606;2022-09-09T06:16:58;15.20;99.90
39277;DHT22;63149;48.086;-1.606;2022-09-09T06:19:25;15.30;99.90
39277;DHT22;63149;48.086;-1.606;2022-09-09T06:21:52;15.40;99.90
39277;DHT22;63149;48.086;-1.606;2022-09-09T06:24:20;15.40;99.90
39277;DHT22;63149;48.086;-1.606;2022-09-09T06:26:49;15.40;99.90
39277;DHT22;63149;48.086;-1.606;2022-09-09T06:29:16;15.40;99.90
39277;DHT22;63149;48.086;-1.606;2022-09-09T06:31:43;15.50;99.90
39277;DHT22;63149;48.086;-1.606;2022-09-09T06:34:10;15.50;99.90
39277;DHT22;63149;48.086;-1.606;2022-09-09T06:36:38;15.50;99.90
39277;DHT22;63149;48.086;-1.606;2022-09-09T06:39:05;15.50;99.90
39277;DHT22;63149;48.086;-1.606;2022-09-09T06:41:34;15.60;99.90
39277;DHT22;63149;48.086;-1.606;2022-09-09T06:44:02;15.60;99.90
39277;DHT22;63149;48.086;-1.606;2022-09-09T06:46:31;15.60;99.90
39277;DHT22;63149;48.086;-1.606;2022-09-09T06:49:02;15.60;99.90
39277;DHT22;63149;48.086;-1.606;2022-09-09T06:51:31;15.60;99.90
39277;DHT22;63149;48.086;-1.606;2022-09-09T06:53:59;15.60;99.90
39277;DHT22;63149;48.086;-1.606;2022-09-09T06:56:29;15.70;99.90
39277;DHT22;63149;48.086;-1.606;2022-09-09T06:58:57;15.70;99.90
39277;DHT22;63149;48.086;-1.606;2022-09-09T07:01:29;15.70;99.90
39277;DHT22;63149;48.086;-1.606;2022-09-09T07:03:58;15.80;99.90
39277;DHT22;63149;48.086;-1.606;2022-09-09T07:06:26;15.80;99.90
39277;DHT22;63149;48.086;-1.606;2022-09-09T07:08:54;15.80;99.90
39277;DHT22;63149;48.086;-1.606;2022-09-09T07:11:23;15.80;99.90
39277;DHT22;63149;48.086;-1.606;2022-09-09T07:13:51;15.80;99.90
39277;DHT22;63149;48.086;-1.606;2022-09-09T07:16:19;16.00;99.90
39277;DHT22;63149;48.086;-1.606;2022-09-09T07:18:50;16.10;99.90
39277;DHT22;63149;48.086;-1.606;2022-09-09T07:21:18;16.20;99.90
39277;DHT22;63149;48.086;-1.606;2022-09-09T07:23:46;16.30;99.90
39277;DHT22;63149;48.086;-1.606;2022-09-09T07:26:15;16.40;99.90
39277;DHT22;63149;48.086;-1.606;2022-09-09T07:28:42;16.60;99.90
39277;DHT22;63149;48.086;-1.606;2022-09-09T07:31:15;16.70;99.90
39277;DHT22;63149;48.086;-1.606;2022-09-09T07:33:43;16.80;99.90
39277;DHT22;63149;48.086;-1.606;2022-09-09T07:36:14;16.90;99.90
39277;DHT22;63149;48.086;-1.606;2022-09-09T07:38:41;16.90;99.90
39277;DHT22;63149;48.086;-1.606;2022-09-09T07:41:11;17.00;99.90
39277;DHT22;63149;48.086;-1.606;2022-09-09T07:43:38;17.00;99.90
39277;DHT22;63149;48.086;-1.606;2022-09-09T07:46:06;17.00;99.90
39277;DHT22;63149;48.086;-1.606;2022-09-09T07:48:34;17.00;99.90
39277;DHT22;63149;48.086;-1.606;2022-09-09T07:51:06;17.00;99.90
39277;DHT22;63149;48.086;-1.606;2022-09-09T07:53:35;17.10;99.90
39277;DHT22;63149;48.086;-1.606;2022-09-09T07:56:05;17.00;99.90
39277;DHT22;63149;48.086;-1.606;2022-09-09T07:58:33;17.00;99.90
39277;DHT22;63149;48.086;-1.606;2022-09-09T08:01:00;17.00;99.90
39277;DHT22;63149;48.086;-1.606;2022-09-09T08:03:27;17.10;99.90
39277;DHT22;63149;48.086;-1.606;2022-09-09T08:06:00;17.10;99.90
39277;DHT22;63149;48.086;-1.606;2022-09-09T08:08:28;17.20;99.90
39277;DHT22;63149;48.086;-1.606;2022-09-09T08:11:03;17.40;99.90
39277;DHT22;63149;48.086;-1.606;2022-09-09T08:13:30;17.60;99.90
39277;DHT22;63149;48.086;-1.606;2022-09-09T08:16:05;17.80;99.90
39277;DHT22;63149;48.086;-1.606;2022-09-09T08:18:33;18.00;99.90
39277;DHT22;63149;48.086;-1.606;2022-09-09T08:21:09;18.20;99.90
39277;DHT22;63149;48.086;-1.606;2022-09-09T08:23:37;18.30;99.90
39277;DHT22;63149;48.086;-1.606;2022-09-09T08:26:09;18.20;99.90
39277;DHT22;63149;48.086;-1.606;2022-09-09T08:28:37;18.10;99.90
39277;DHT22;63149;48.086;-1.606;2022-09-09T08:31:07;18.20;99.90
39277;DHT22;63149;48.086;-1.606;2022-09-09T08:33:34;18.10;99.90
39277;DHT22;63149;48.086;-1.606;2022-09-09T08:36:03;18.10;99.90
39277;DHT22;63149;48.086;-1.606;2022-09-09T08:38:30;18.20;99.90
39277;DHT22;63149;48.086;-1.606;2022-09-09T08:41:04;18.20;99.90
39277;DHT22;63149;48.086;-1.606;2022-09-09T08:43:35;18.30;99.90
39277;DHT22;63149;48.086;-1.606;2022-09-09T08:46:06;18.20;99.90
39277;DHT22;63149;48.086;-1.606;2022-09-09T08:48:47;18.30;99.90
39277;DHT22;63149;48.086;-1.606;2022-09-09T08:51:18;18.50;99.90
39277;DHT22;63149;48.086;-1.606;2022-09-09T08:53:50;18.60;99.90
39277;DHT22;63149;48.086;-1.606;2022-09-09T08:56:21;19.00;99.90
39277;DHT22;63149;48.086;-1.606;2022-09-09T08:58:51;19.60;99.90
39277;DHT22;63149;48.086;-1.606;2022-09-09T09:04:21;20.10;99.90
39277;DHT22;63149;48.086;-1.606;2022-09-09T09:06:58;20.10;99.90
39277;DHT22;63149;48.086;-1.606;2022-09-09T09:09:31;20.20;99.90
39277;DHT22;63149;48.086;-1.606;2022-09-09T09:12:13;20.80;99.90
39277;DHT22;63149;48.086;-1.606;2022-09-09T09:14:43;21.50;99.90
39277;DHT22;63149;48.086;-1.606;2022-09-09T09:17:13;21.30;99.90
39277;DHT22;63149;48.086;-1.606;2022-09-09T09:19:42;21.00;99.90
39277;DHT22;63149;48.086;-1.606;2022-09-09T09:22:15;20.80;99.90
39277;DHT22;63149;48.086;-1.606;2022-09-09T09:24:49;21.00;99.90
39277;DHT22;63149;48.086;-1.606;2022-09-09T09:27:25;20.90;99.90
39277;DHT22;63149;48.086;-1.606;2022-09-09T09:29:57;20.80;99.90
39277;DHT22;63149;48.086;-1.606;2022-09-09T09:32:24;20.50;99.90
39277;DHT22;63149;48.086;-1.606;2022-09-09T09:34:56;20.40;99.90
39277;DHT22;63149;48.086;-1.606;2022-09-09T09:37:27;20.50;99.90
39277;DHT22;63149;48.086;-1.606;2022-09-09T09:39:56;20.40;99.90
39277;DHT22;63149;48.086;-1.606;2022-09-09T09:42:22;20.40;99.90
39277;DHT22;63149;48.086;-1.606;2022-09-09T09:44:50;20.40;99.90
39277;DHT22;63149;48.086;-1.606;2022-09-09T09:47:20;20.20;99.90
39277;DHT22;63149;48.086;-1.606;2022-09-09T09:49:52;20.30;99.90
39277;DHT22;63149;48.086;-1.606;2022-09-09T09:52:22;20.10;99.90
39277;DHT22;63149;48.086;-1.606;2022-09-09T09:54:50;20.10;99.90
39277;DHT22;63149;48.086;-1.606;2022-09-09T09:57:24;20.30;99.90
39277;DHT22;63149;48.086;-1.606;2022-09-09T10:00:02;20.40;99.90
39277;DHT22;63149;48.086;-1.606;2022-09-09T10:02:39;20.60;99.90
39277;DHT22;63149;48.086;-1.606;2022-09-09T10:05:14;20.80;99.90
39277;DHT22;63149;48.086;-1.606;2022-09-09T10:07:41;21.30;99.90
39277;DHT22;63149;48.086;-1.606;2022-09-09T10:10:15;21.20;99.90
39277;DHT22;63149;48.086;-1.606;2022-09-09T10:12:45;21.00;99.90
39277;DHT22;63149;48.086;-1.606;2022-09-09T10:15:33;20.80;99.90
39277;DHT22;63149;48.086;-1.606;2022-09-09T10:18:13;21.10;99.90
39277;DHT22;63149;48.086;-1.606;2022-09-09T10:20:51;22.20;99.90
39277;DHT22;63149;48.086;-1.606;2022-09-09T10:23:29;23.50;99.90
39277;DHT22;63149;48.086;-1.606;2022-09-09T10:26:15;24.30;99.90
39277;DHT22;63149;48.086;-1.606;2022-09-09T10:29:06;24.10;99.90
39277;DHT22;63149;48.086;-1.606;2022-09-09T10:31:44;24.30;99.90
39277;DHT22;63149;48.086;-1.606;2022-09-09T10:34:25;23.90;99.90
39277;DHT22;63149;48.086;-1.606;2022-09-09T10:36:57;23.80;99.90
39277;DHT22;63149;48.086;-1.606;2022-09-09T10:39:33;23.50;99.90
39277;DHT22;63149;48.086;-1.606;2022-09-09T10:42:05;23.10;99.90
39277;DHT22;63149;48.086;-1.606;2022-09-09T10:44:44;22.90;99.90
39277;DHT22;63149;48.086;-1.606;2022-09-09T10:47:23;23.00;99.90
39277;DHT22;63149;48.086;-1.606;2022-09-09T10:50:08;22.40;99.90
39277;DHT22;63149;48.086;-1.606;2022-09-09T10:52:43;22.10;99.90
39277;DHT22;63149;48.086;-1.606;2022-09-09T10:55:15;22.00;99.90
39277;DHT22;63149;48.086;-1.606;2022-09-09T10:57:45;21.90;99.90
39277;DHT22;63149;48.086;-1.606;2022-09-09T11:00:17;21.70;99.90
39277;DHT22;63149;48.086;-1.606;2022-09-09T11:02:48;21.50;99.90
39277;DHT22;63149;48.086;-1.606;2022-09-09T11:05:20;24.00;99.90
39277;DHT22;63149;48.086;-1.606;2022-09-09T11:07:50;25.20;99.90
39277;DHT22;63149;48.086;-1.606;2022-09-09T11:10:24;24.60;99.90
39277;DHT22;63149;48.086;-1.606;2022-09-09T11:12:56;26.00;99.90
39277;DHT22;63149;48.086;-1.606;2022-09-09T11:15:29;26.00;99.90
39277;DHT22;63149;48.086;-1.606;2022-09-09T11:18:01;25.20;99.90
39277;DHT22;63149;48.086;-1.606;2022-09-09T11:20:33;25.20;99.90
39277;DHT22;63149;48.086;-1.606;2022-09-09T11:23:03;24.70;99.90
39277;DHT22;63149;48.086;-1.606;2022-09-09T11:25:34;25.80;99.90
39277;DHT22;63149;48.086;-1.606;2022-09-09T11:28:25;26.70;99.90
39277;DHT22;63149;48.086;-1.606;2022-09-09T11:31:04;25.90;99.90
39277;DHT22;63149;48.086;-1.606;2022-09-09T11:33:58;26.00;99.90
39277;DHT22;63149;48.086;-1.606;2022-09-09T11:42:40;25.70;99.90
39277;DHT22;63149;48.086;-1.606;2022-09-09T11:45:19;24.90;99.90
39277;DHT22;63149;48.086;-1.606;2022-09-09T11:47:52;24.50;99.90
39277;DHT22;63149;48.086;-1.606;2022-09-09T11:50:35;24.10;99.90
39277;DHT22;63149;48.086;-1.606;2022-09-09T11:53:18;23.90;99.90
39277;DHT22;63149;48.086;-1.606;2022-09-09T11:55:59;23.60;99.90
39277;DHT22;63149;48.086;-1.606;2022-09-09T11:58:27;23.30;99.90
39277;DHT22;63149;48.086;-1.606;2022-09-09T12:00:58;23.00;99.90
39277;DHT22;63149;48.086;-1.606;2022-09-09T12:03:41;22.80;99.90
39277;DHT22;63149;48.086;-1.606;2022-09-09T12:06:13;22.70;99.90
39277;DHT22;63149;48.086;-1.606;2022-09-09T12:08:44;22.40;99.90
39277;DHT22;63149;48.086;-1.606;2022-09-09T12:11:12;22.30;99.90
39277;DHT22;63149;48.086;-1.606;2022-09-09T12:13:53;22.20;99.90
39277;DHT22;63149;48.086;-1.606;2022-09-09T12:16:29;22.00;99.90
39277;DHT22;63149;48.086;-1.606;2022-09-09T12:19:15;22.00;99.90
39277;DHT22;63149;48.086;-1.606;2022-09-09T12:21:49;22.20;99.90
39277;DHT22;63149;48.086;-1.606;2022-09-09T12:24:23;22.10;99.90
39277;DHT22;63149;48.086;-1.606;2022-09-09T12:26:57;22.20;99.90
39277;DHT22;63149;48.086;-1.606;2022-09-09T12:29:28;25.10;99.90
39277;DHT22;63149;48.086;-1.606;2022-09-09T12:32:02;28.60;99.90
39277;DHT22;63149;48.086;-1.606;2022-09-09T12:34:39;31.00;99.90
39277;DHT22;63149;48.086;-1.606;2022-09-09T12:37:15;29.20;99.90
39277;DHT22;63149;48.086;-1.606;2022-09-09T12:39:49;29.50;99.90
39277;DHT22;63149;48.086;-1.606;2022-09-09T12:42:19;31.70;99.90
39277;DHT22;63149;48.086;-1.606;2022-09-09T12:44:53;33.30;99.90
39277;DHT22;63149;48.086;-1.606;2022-09-09T12:47:22;33.10;99.90
39277;DHT22;63149;48.086;-1.606;2022-09-09T12:49:51;30.10;99.90
39277;DHT22;63149;48.086;-1.606;2022-09-09T12:52:27;28.50;99.90
39277;DHT22;63149;48.086;-1.606;2022-09-09T12:54:59;27.20;99.90
39277;DHT22;63149;48.086;-1.606;2022-09-09T12:57:31;26.10;99.90
39277;DHT22;63149;48.086;-1.606;2022-09-09T13:00:06;25.70;99.90
39277;DHT22;63149;48.086;-1.606;2022-09-09T13:02:35;25.50;99.90
39277;DHT22;63149;48.086;-1.606;2022-09-09T13:05:15;25.30;99.90
39277;DHT22;63149;48.086;-1.606;2022-09-09T13:07:43;24.90;99.90
39277;DHT22;63149;48.086;-1.606;2022-09-09T13:10:13;24.60;99.90
39277;DHT22;63149;48.086;-1.606;2022-09-09T13:12:42;24.60;99.90
39277;DHT22;63149;48.086;-1.606;2022-09-09T13:15:16;24.50;99.90
39277;DHT22;63149;48.086;-1.606;2022-09-09T13:17:53;24.30;99.90
39277;DHT22;63149;48.086;-1.606;2022-09-09T13:20:21;24.20;99.90
39277;DHT22;63149;48.086;-1.606;2022-09-09T13:22:49;24.00;99.90
39277;DHT22;63149;48.086;-1.606;2022-09-09T13:25:22;23.80;99.90
39277;DHT22;63149;48.086;-1.606;2022-09-09T13:27:56;23.70;99.90
39277;DHT22;63149;48.086;-1.606;2022-09-09T13:30:26;23.70;99.90
39277;DHT22;63149;48.086;-1.606;2022-09-09T13:33:21;23.50;99.90
39277;DHT22;63149;48.086;-1.606;2022-09-09T13:35:51;23.40;99.90
39277;DHT22;63149;48.086;-1.606;2022-09-09T13:38:19;23.10;99.90
39277;DHT22;63149;48.086;-1.606;2022-09-09T13:40:56;22.90;99.90
39277;DHT22;63149;48.086;-1.606;2022-09-09T13:43:25;22.60;99.90
39277;DHT22;63149;48.086;-1.606;2022-09-09T13:45:54;22.50;99.90
39277;DHT22;63149;48.086;-1.606;2022-09-09T13:48:24;22.20;99.90
39277;DHT22;63149;48.086;-1.606;2022-09-09T13:50:58;22.10;99.90
39277;DHT22;63149;48.086;-1.606;2022-09-09T13:53:25;21.90;99.90
39277;DHT22;63149;48.086;-1.606;2022-09-09T13:55:54;21.60;99.90
39277;DHT22;63149;48.086;-1.606;2022-09-09T13:58:22;21.30;99.90
39277;DHT22;63149;48.086;-1.606;2022-09-09T14:00:50;21.00;99.90
39277;DHT22;63149;48.086;-1.606;2022-09-09T14:03:18;20.70;99.90
39277;DHT22;63149;48.086;-1.606;2022-09-09T14:05:45;20.50;99.90
39277;DHT22;63149;48.086;-1.606;2022-09-09T14:08:21;20.50;99.90
39277;DHT22;63149;48.086;-1.606;2022-09-09T14:10:49;20.40;99.90
39277;DHT22;63149;48.086;-1.606;2022-09-09T14:13:17;20.30;99.90
39277;DHT22;63149;48.086;-1.606;2022-09-09T14:15:48;20.20;99.90
39277;DHT22;63149;48.086;-1.606;2022-09-09T14:18:15;20.10;99.90
39277;DHT22;63149;48.086;-1.606;2022-09-09T14:20:42;20.10;99.90
39277;DHT22;63149;48.086;-1.606;2022-09-09T14:23:11;20.10;99.90
39277;DHT22;63149;48.086;-1.606;2022-09-09T14:25:41;20.30;99.90
39277;DHT22;63149;48.086;-1.606;2022-09-09T14:28:12;20.40;99.90
39277;DHT22;63149;48.086;-1.606;2022-09-09T14:30:41;20.50;99.90
39277;DHT22;63149;48.086;-1.606;2022-09-09T14:33:12;20.50;99.90
39277;DHT22;63149;48.086;-1.606;2022-09-09T14:35:39;20.50;99.90
39277;DHT22;63149;48.086;-1.606;2022-09-09T14:38:07;20.50;99.90
39277;DHT22;63149;48.086;-1.606;2022-09-09T14:40:35;20.30;99.90
39277;DHT22;63149;48.086;-1.606;2022-09-09T14:43:02;20.20;99.90
39277;DHT22;63149;48.086;-1.606;2022-09-09T14:45:29;20.10;99.90
39277;DHT22;63149;48.086;-1.606;2022-09-09T14:47:58;20.20;99.90
39277;DHT22;63149;48.086;-1.606;2022-09-09T14:50:25;20.30;99.90
39277;DHT22;63149;48.086;-1.606;2022-09-09T14:52:52;20.00;99.90
39277;DHT22;63149;48.086;-1.606;2022-09-09T14:55:19;20.00;99.90
39277;DHT22;63149;48.086;-1.606;2022-09-09T14:57:47;19.80;99.90
39277;DHT22;63149;48.086;-1.606;2022-09-09T15:00:14;19.60;99.90
39277;DHT22;63149;48.086;-1.606;2022-09-09T15:02:41;19.60;99.90
39277;DHT22;63149;48.086;-1.606;2022-09-09T15:05:10;19.50;99.90
39277;DHT22;63149;48.086;-1.606;2022-09-09T15:07:37;19.50;99.90
39277;DHT22;63149;48.086;-1.606;2022-09-09T15:10:04;19.60;99.90
39277;DHT22;63149;48.086;-1.606;2022-09-09T15:12:32;19.70;99.90
39277;DHT22;63149;48.086;-1.606;2022-09-09T15:15:01;19.80;99.90
39277;DHT22;63149;48.086;-1.606;2022-09-09T15:17:28;19.90;99.90
39277;DHT22;63149;48.086;-1.606;2022-09-09T15:19:55;19.90;99.90
39277;DHT22;63149;48.086;-1.606;2022-09-09T15:22:23;19.90;99.90
39277;DHT22;63149;48.086;-1.606;2022-09-09T15:24:51;19.90;99.90
39277;DHT22;63149;48.086;-1.606;2022-09-09T15:27:18;19.80;99.90
39277;DHT22;63149;48.086;-1.606;2022-09-09T15:29:44;19.80;99.90
39277;DHT22;63149;48.086;-1.606;2022-09-09T15:32:12;19.70;99.90
39277;DHT22;63149;48.086;-1.606;2022-09-09T15:34:39;19.70;99.90
39277;DHT22;63149;48.086;-1.606;2022-09-09T15:37:06;19.70;99.90
39277;DHT22;63149;48.086;-1.606;2022-09-09T15:39:37;19.70;99.90
39277;DHT22;63149;48.086;-1.606;2022-09-09T15:42:04;19.80;99.90
39277;DHT22;63149;48.086;-1.606;2022-09-09T15:44:38;19.90;99.90
39277;DHT22;63149;48.086;-1.606;2022-09-09T15:47:05;19.90;99.90
39277;DHT22;63149;48.086;-1.606;2022-09-09T15:49:32;19.90;99.90
39277;DHT22;63149;48.086;-1.606;2022-09-09T15:52:00;19.90;99.90
39277;DHT22;63149;48.086;-1.606;2022-09-09T15:54:31;20.00;99.90
39277;DHT22;63149;48.086;-1.606;2022-09-09T15:57:02;20.00;99.90
39277;DHT22;63149;48.086;-1.606;2022-09-09T15:59:30;20.10;99.90
39277;DHT22;63149;48.086;-1.606;2022-09-09T16:01:59;20.20;99.90
39277;DHT22;63149;48.086;-1.606;2022-09-09T16:04:27;20.30;99.90
39277;DHT22;63149;48.086;-1.606;2022-09-09T16:06:55;20.30;99.90
39277;DHT22;63149;48.086;-1.606;2022-09-09T16:09:24;20.30;99.90
39277;DHT22;63149;48.086;-1.606;2022-09-09T16:11:51;20.30;99.90
39277;DHT22;63149;48.086;-1.606;2022-09-09T16:14:20;20.30;99.90
39277;DHT22;63149;48.086;-1.606;2022-09-09T16:16:47;20.40;99.90
39277;DHT22;63149;48.086;-1.606;2022-09-09T16:19:14;20.40;99.90
39277;DHT22;63149;48.086;-1.606;2022-09-09T16:21:43;20.50;99.90
39277;DHT22;63149;48.086;-1.606;2022-09-09T16:24:12;20.50;99.90
39277;DHT22;63149;48.086;-1.606;2022-09-09T16:26:42;20.50;99.90
39277;DHT22;63149;48.086;-1.606;2022-09-09T16:29:11;20.50;99.90
39277;DHT22;63149;48.086;-1.606;2022-09-09T16:31:40;20.40;99.90
39277;DHT22;63149;48.086;-1.606;2022-09-09T16:34:07;20.30;99.90
39277;DHT22;63149;48.086;-1.606;2022-09-09T16:36:36;20.20;99.90
39277;DHT22;63149;48.086;-1.606;2022-09-09T16:39:06;20.10;99.90
39277;DHT22;63149;48.086;-1.606;2022-09-09T16:41:34;20.00;99.90
39277;DHT22;63149;48.086;-1.606;2022-09-09T16:44:03;20.00;99.90
39277;DHT22;63149;48.086;-1.606;2022-09-09T16:46:31;19.90;99.90
39277;DHT22;63149;48.086;-1.606;2022-09-09T16:49:02;19.80;99.90
39277;DHT22;63149;48.086;-1.606;2022-09-09T16:51:32;19.80;99.90
39277;DHT22;63149;48.086;-1.606;2022-09-09T16:54:01;19.70;99.90
39277;DHT22;63149;48.086;-1.606;2022-09-09T16:56:30;19.70;99.90
39277;DHT22;63149;48.086;-1.606;2022-09-09T16:59:00;19.80;99.90
39277;DHT22;63149;48.086;-1.606;2022-09-09T17:01:29;19.80;99.90
39277;DHT22;63149;48.086;-1.606;2022-09-09T17:03:58;19.80;99.90
39277;DHT22;63149;48.086;-1.606;2022-09-09T17:06:28;19.80;99.90
39277;DHT22;63149;48.086;-1.606;2022-09-09T17:08:56;19.80;99.90
39277;DHT22;63149;48.086;-1.606;2022-09-09T17:11:23;19.80;99.90
39277;DHT22;63149;48.086;-1.606;2022-09-09T17:13:52;19.80;99.90
39277;DHT22;63149;48.086;-1.606;2022-09-09T17:16:21;19.80;99.90
39277;DHT22;63149;48.086;-1.606;2022-09-09T17:18:49;19.80;99.90
39277;DHT22;63149;48.086;-1.606;2022-09-09T17:21:17;19.70;99.90
39277;DHT22;63149;48.086;-1.606;2022-09-09T17:23:46;19.70;99.90
39277;DHT22;63149;48.086;-1.606;2022-09-09T17:26:15;19.80;99.90
39277;DHT22;63149;48.086;-1.606;2022-09-09T17:28:43;19.70;99.90
39277;DHT22;63149;48.086;-1.606;2022-09-09T17:31:12;19.70;99.90
39277;DHT22;63149;48.086;-1.606;2022-09-09T17:33:41;19.70;99.90
39277;DHT22;63149;48.086;-1.606;2022-09-09T17:36:10;19.60;99.90
39277;DHT22;63149;48.086;-1.606;2022-09-09T17:38:38;19.60;99.90
39277;DHT22;63149;48.086;-1.606;2022-09-09T17:41:08;19.50;99.90
39277;DHT22;63149;48.086;-1.606;2022-09-09T17:43:35;19.40;99.90
39277;DHT22;63149;48.086;-1.606;2022-09-09T17:46:07;19.30;99.90
39277;DHT22;63149;48.086;-1.606;2022-09-09T17:48:34;19.20;99.90
39277;DHT22;63149;48.086;-1.606;2022-09-09T17:51:03;19.20;99.90
39277;DHT22;63149;48.086;-1.606;2022-09-09T17:53:31;19.10;99.90
39277;DHT22;63149;48.086;-1.606;2022-09-09T17:56:03;19.00;99.90
39277;DHT22;63149;48.086;-1.606;2022-09-09T17:58:31;19.00;99.90
39277;DHT22;63149;48.086;-1.606;2022-09-09T18:01:03;18.90;99.90
39277;DHT22;63149;48.086;-1.606;2022-09-09T18:03:31;18.90;99.90
39277;DHT22;63149;48.086;-1.606;2022-09-09T18:06:02;18.80;99.90
39277;DHT22;63149;48.086;-1.606;2022-09-09T18:08:29;18.70;99.90
39277;DHT22;63149;48.086;-1.606;2022-09-09T18:10:56;18.80;99.90
39277;DHT22;63149;48.086;-1.606;2022-09-09T18:13:23;18.70;99.90
39277;DHT22;63149;48.086;-1.606;2022-09-09T18:15:51;18.70;99.90
39277;DHT22;63149;48.086;-1.606;2022-09-09T18:18:18;18.70;99.90
39277;DHT22;63149;48.086;-1.606;2022-09-09T18:20:46;18.70;99.90
39277;DHT22;63149;48.086;-1.606;2022-09-09T18:23:13;18.70;99.90
39277;DHT22;63149;48.086;-1.606;2022-09-09T18:25:40;18.60;99.90
39277;DHT22;63149;48.086;-1.606;2022-09-09T18:28:07;18.60;99.90
39277;DHT22;63149;48.086;-1.606;2022-09-09T18:30:38;18.50;99.90
39277;DHT22;63149;48.086;-1.606;2022-09-09T18:33:07;18.50;99.90
39277;DHT22;63149;48.086;-1.606;2022-09-09T18:35:35;18.50;99.90
39277;DHT22;63149;48.086;-1.606;2022-09-09T18:38:02;18.50;99.90
39277;DHT22;63149;48.086;-1.606;2022-09-09T18:40:29;18.50;99.90
39277;DHT22;63149;48.086;-1.606;2022-09-09T18:42:56;18.40;99.90
39277;DHT22;63149;48.086;-1.606;2022-09-09T18:45:23;18.40;99.90
39277;DHT22;63149;48.086;-1.606;2022-09-09T18:47:51;18.40;99.90
39277;DHT22;63149;48.086;-1.606;2022-09-09T18:50:22;18.40;99.90
39277;DHT22;63149;48.086;-1.606;2022-09-09T18:52:49;18.40;99.90
39277;DHT22;63149;48.086;-1.606;2022-09-09T18:55:17;18.40;99.90
39277;DHT22;63149;48.086;-1.606;2022-09-09T18:57:44;18.40;99.90
39277;DHT22;63149;48.086;-1.606;2022-09-09T19:00:12;18.40;99.90
39277;DHT22;63149;48.086;-1.606;2022-09-09T19:02:39;18.30;99.90
39277;DHT22;63149;48.086;-1.606;2022-09-09T19:05:07;18.40;99.90
39277;DHT22;63149;48.086;-1.606;2022-09-09T19:07:36;18.30;99.90
39277;DHT22;63149;48.086;-1.606;2022-09-09T19:10:04;18.30;99.90
39277;DHT22;63149;48.086;-1.606;2022-09-09T19:12:31;18.30;99.90
39277;DHT22;63149;48.086;-1.606;2022-09-09T19:14:58;18.40;99.90
39277;DHT22;63149;48.086;-1.606;2022-09-09T19:17:26;18.30;99.90
39277;DHT22;63149;48.086;-1.606;2022-09-09T19:19:54;18.30;99.90
39277;DHT22;63149;48.086;-1.606;2022-09-09T19:22:21;18.30;99.90
39277;DHT22;63149;48.086;-1.606;2022-09-09T19:24:50;18.30;99.90
39277;DHT22;63149;48.086;-1.606;2022-09-09T19:27:17;18.30;99.90
39277;DHT22;63149;48.086;-1.606;2022-09-09T19:29:44;18.30;99.90
39277;DHT22;63149;48.086;-1.606;2022-09-09T19:32:12;18.30;99.90
39277;DHT22;63149;48.086;-1.606;2022-09-09T19:34:39;18.30;99.90
39277;DHT22;63149;48.086;-1.606;2022-09-09T19:37:08;18.30;99.90
39277;DHT22;63149;48.086;-1.606;2022-09-09T19:39:36;18.40;99.90
39277;DHT22;63149;48.086;-1.606;2022-09-09T19:42:04;18.30;99.90
39277;DHT22;63149;48.086;-1.606;2022-09-09T19:44:31;18.30;99.90
39277;DHT22;63149;48.086;-1.606;2022-09-09T19:46:58;18.30;99.90
39277;DHT22;63149;48.086;-1.606;2022-09-09T19:49:25;18.30;99.90
39277;DHT22;63149;48.086;-1.606;2022-09-09T19:51:52;18.30;99.90
39277;DHT22;63149;48.086;-1.606;2022-09-09T19:54:20;18.30;99.90
39277;DHT22;63149;48.086;-1.606;2022-09-09T19:56:47;18.30;99.90
39277;DHT22;63149;48.086;-1.606;2022-09-09T19:59:15;18.30;99.90
39277;DHT22;63149;48.086;-1.606;2022-09-09T20:01:43;18.30;99.90
39277;DHT22;63149;48.086;-1.606;2022-09-09T20:04:12;18.20;99.90
39277;DHT22;63149;48.086;-1.606;2022-09-09T20:06:41;18.20;99.90
39277;DHT22;63149;48.086;-1.606;2022-09-09T20:09:11;18.20;99.90
39277;DHT22;63149;48.086;-1.606;2022-09-09T20:11:40;18.10;99.90
39277;DHT22;63149;48.086;-1.606;2022-09-09T20:14:08;18.20;99.90
39277;DHT22;63149;48.086;-1.606;2022-09-09T20:16:36;18.10;99.90
39277;DHT22;63149;48.086;-1.606;2022-09-09T20:19:05;18.10;99.90
39277;DHT22;63149;48.086;-1.606;2022-09-09T20:21:34;18.10;99.90
39277;DHT22;63149;48.086;-1.606;2022-09-09T20:24:04;18.10;99.90
39277;DHT22;63149;48.086;-1.606;2022-09-09T20:26:33;18.10;99.90
39277;DHT22;63149;48.086;-1.606;2022-09-09T20:29:03;18.00;99.90
39277;DHT22;63149;48.086;-1.606;2022-09-09T20:31:33;18.00;99.90
39277;DHT22;63149;48.086;-1.606;2022-09-09T20:34:03;18.00;99.90
39277;DHT22;63149;48.086;-1.606;2022-09-09T20:36:32;17.90;99.90
39277;DHT22;63149;48.086;-1.606;2022-09-09T20:39:02;17.90;99.90
39277;DHT22;63149;48.086;-1.606;2022-09-09T20:41:31;17.90;99.90